Time;durP1;ratioP1;P1;durP2;ratioP2;P2;SDS_P1;SDS_P2;PMS_P1;PMS_P2;Temp;Humidity;BMP_temperature;BMP_pressure;BME280_temperature;BME280_humidity;BME280_pressure;Samples;Min_cycle;Max_cycle;Signal;HPM_P1;HPM_P2
2022/09/20 00:01:20;;;;;;;3.58;2.67;;;;;;;9.88;76.90;98293.38;5011829;28;20040;-71
2022/09/20 00:03:48;;;;;;;2.72;2.00;;;;;;;9.91;77.42;98301.78;5011971;28;20025;-71
2022/09/20 00:06:18;;;;;;;4.68;2.28;;;;;;;9.89;77.72;98301.28;5016375;28;20022;-71
2022/09/20 00:08:45;;;;;;;3.03;2.10;;;;;;;9.87;77.43;98302.69;5017206;28;20768;-71
2022/09/20 00:11:17;;;;;;;2.67;2.17;;;;;;;9.88;77.52;98307.06;5023077;28;20029;-71
2022/09/20 00:13:45;;;;;;;3.13;2.25;;;;;;;9.91;77.96;98309.22;5031119;28;20362;-71
2022/09/20 00:16:13;;;;;;;4.28;2.00;;;;;;;9.93;77.82;98320.69;5031428;28;20564;-71
2022/09/20 00:18:39;;;;;;;2.85;2.10;;;;;;;9.95;78.00;98313.00;5026410;28;20021;-72
2022/09/20 00:21:05;;;;;;;4.95;2.10;;;;;;;9.96;77.53;98314.63;5001482;28;20034;-71
2022/09/20 00:23:31;;;;;;;2.67;2.08;;;;;;;9.92;77.53;98322.59;5011109;28;20014;-71
2022/09/20 00:25:59;;;;;;;2.53;1.90;;;;;;;9.91;78.01;98320.97;5010686;28;20421;-72
2022/09/20 00:28:25;;;;;;;3.13;2.17;;;;;;;9.90;77.81;98319.34;5008526;28;20506;-71
2022/09/20 00:30:52;;;;;;;2.40;1.92;;;;;;;9.90;77.98;98313.06;5011057;28;20109;-71
2022/09/20 00:33:17;;;;;;;3.45;2.20;;;;;;;9.92;77.90;98308.09;5009550;28;20057;-71
2022/09/20 00:35:44;;;;;;;2.85;2.03;;;;;;;9.93;77.69;98310.53;5010511;28;20049;-71
2022/09/20 00:38:12;;;;;;;3.08;2.30;;;;;;;9.93;77.74;98312.47;5006192;28;20034;-71
2022/09/20 00:40:38;;;;;;;2.83;1.80;;;;;;;9.92;77.82;98310.84;5004077;28;20033;-71
2022/09/20 00:43:04;;;;;;;2.53;2.10;;;;;;;9.91;77.14;98315.50;5007812;28;20530;-71
2022/09/20 00:45:29;;;;;;;2.40;1.90;;;;;;;9.93;77.80;98318.75;5007093;28;20109;-71
2022/09/20 00:48:03;;;;;;;3.22;2.22;;;;;;;9.94;78.07;98325.06;5008610;28;20034;-71
2022/09/20 00:50:53;;;;;;;2.67;1.92;;;;;;;9.92;77.76;98313.59;5003690;28;20075;-71
2022/09/20 00:53:29;;;;;;;3.38;2.20;;;;;;;9.93;77.29;98304.25;5010866;28;20100;-71
2022/09/20 00:56:05;;;;;;;4.05;1.80;;;;;;;9.94;77.40;98308.63;5012189;28;20130;-72
2022/09/20 00:58:37;;;;;;;4.10;2.03;;;;;;;9.95;77.10;98307.53;5012373;28;20030;-72
2022/09/20 01:01:03;;;;;;;3.58;2.35;;;;;;;9.94;77.59;98312.16;5012798;28;20390;-71
2022/09/20 01:03:32;;;;;;;3.03;1.95;;;;;;;9.94;77.77;98305.88;5031775;28;20045;-72
2022/09/20 01:06:02;;;;;;;2.95;1.90;;;;;;;9.96;77.73;98314.63;5031485;28;20041;-72
2022/09/20 01:08:28;;;;;;;2.72;1.90;;;;;;;9.93;77.83;98313.28;5023943;28;20152;-72
2022/09/20 01:10:53;;;;;;;3.63;1.90;;;;;;;9.93;77.24;98312.47;5011308;28;20470;-72
2022/09/20 01:13:18;;;;;;;3.85;1.85;;;;;;;9.92;77.82;98319.06;5011816;28;20030;-70
2022/09/20 01:15:48;;;;;;;3.88;2.03;;;;;;;9.90;77.46;98307.59;5011575;28;20481;-70
2022/09/20 01:18:15;;;;;;;3.33;1.70;;;;;;;9.91;77.91;98304.53;5011613;28;20021;-70
2022/09/20 01:20:44;;;;;;;3.38;2.20;;;;;;;9.94;77.39;98317.66;5011093;28;20414;-69
2022/09/20 01:23:34;;;;;;;2.28;1.90;;;;;;;9.96;77.56;98314.63;5010468;28;20034;-69
2022/09/20 01:26:15;;;;;;;3.58;1.85;;;;;;;9.97;77.27;98308.84;5010997;28;20037;-69
2022/09/20 01:28:43;;;;;;;3.03;2.00;;;;;;;10.02;76.78;98315.34;5031019;28;20029;-70
2022/09/20 01:31:25;;;;;;;2.88;1.90;;;;;;;10.01;77.27;98311.78;5030575;28;20112;-70
2022/09/20 01:34:07;;;;;;;2.70;1.70;;;;;;;9.98;77.03;98315.16;5031112;28;20053;-70
2022/09/20 01:36:54;;;;;;;2.58;1.92;;;;;;;9.99;78.01;98324.97;5031119;28;20026;-69
2022/09/20 01:39:34;;;;;;;2.40;2.00;;;;;;;9.96;77.40;98317.38;5030926;28;20091;-69
2022/09/20 01:42:08;;;;;;;4.38;1.88;;;;;;;9.94;77.14;98317.66;5030671;28;20040;-70
2022/09/20 01:44:49;;;;;;;3.53;1.85;;;;;;;9.95;77.65;98315.72;5025706;28;20057;-70
2022/09/20 01:47:33;;;;;;;2.33;1.90;;;;;;;9.95;77.42;98316.53;5031202;28;20038;-69
2022/09/20 01:50:04;;;;;;;3.28;2.00;;;;;;;9.93;77.14;98316.00;5030846;28;20484;-70
2022/09/20 01:52:58;;;;;;;3.00;2.00;;;;;;;9.88;76.85;98313.34;5030410;28;20693;-69
2022/09/20 01:56:06;;;;;;;2.67;1.63;;;;;;;9.86;77.28;98318.31;5030866;28;20436;-70
2022/09/20 01:59:07;;;;;;;3.70;1.90;;;;;;;9.80;77.41;98316.72;5030696;28;20092;-69
2022/09/20 02:01:51;;;;;;;3.60;1.85;;;;;;;9.82;77.13;98318.09;4997452;28;20764;-69
2022/09/20 02:04:32;;;;;;;2.55;1.60;;;;;;;9.78;77.69;98321.72;5028416;28;20049;-69
2022/09/20 02:07:25;;;;;;;3.83;2.05;;;;;;;9.79;77.74;98321.41;5029911;28;20310;-70
2022/09/20 02:10:02;;;;;;;2.30;1.60;;;;;;;9.82;77.54;98317.25;5023352;28;20061;-70
2022/09/20 02:12:51;;;;;;;2.85;1.70;;;;;;;9.80;77.69;98323.03;5025960;28;20032;-69
2022/09/20 02:15:40;;;;;;;2.72;1.85;;;;;;;9.83;77.91;98327.09;5009947;28;20109;-70
2022/09/20 02:18:42;;;;;;;4.40;1.88;;;;;;;9.79;77.72;98324.16;5016642;28;20025;-70
2022/09/20 02:21:33;;;;;;;3.42;1.70;;;;;;;9.84;76.90;98317.78;5009962;28;20051;-70
2022/09/20 02:23:59;;;;;;;1.77;1.60;;;;;;;9.83;77.23;98322.47;5010263;28;20404;-70
2022/09/20 02:26:56;;;;;;;1.67;1.35;;;;;;;9.86;77.56;98326.53;5010744;28;20467;-70
2022/09/20 02:29:40;;;;;;;3.05;1.70;;;;;;;9.92;77.52;98330.81;5010586;28;20091;-70
2022/09/20 02:32:39;;;;;;;3.05;1.65;;;;;;;9.92;77.06;98332.75;5009782;28;20065;-70
2022/09/20 02:35:05;;;;;;;3.13;1.80;;;;;;;9.98;77.72;98326.09;5010480;28;20026;-70
2022/09/20 02:37:54;;;;;;;1.98;1.30;;;;;;;9.97;77.54;98333.50;5010777;28;20022;-70
2022/09/20 02:40:38;;;;;;;1.70;1.50;;;;;;;9.95;76.48;98340.38;5010055;28;20478;-70
2022/09/20 02:43:23;;;;;;;1.80;1.52;;;;;;;9.95;77.00;98341.19;5010665;28;20085;-70
2022/09/20 02:46:09;;;;;;;1.65;1.45;;;;;;;9.91;77.33;98342.88;5010459;28;20034;-70
2022/09/20 02:48:48;;;;;;;2.47;1.92;;;;;;;9.86;77.00;98337.47;5010507;28;20512;-70
2022/09/20 02:51:42;;;;;;;2.42;1.50;;;;;;;9.83;77.35;98341.63;5009725;28;20022;-70
2022/09/20 02:54:36;;;;;;;1.90;1.52;;;;;;;9.83;76.71;98338.88;5008177;28;20046;-70
2022/09/20 02:57:08;;;;;;;2.95;1.60;;;;;;;9.84;77.30;98342.44;5010301;28;20133;-70
2022/09/20 02:59:45;;;;;;;2.40;2.17;;;;;;;9.85;77.21;98344.06;5010100;28;20042;-70
2022/09/20 03:02:44;;;;;;;2.10;1.70;;;;;;;9.87;77.76;98338.31;5010288;28;20455;-70
2022/09/20 03:05:18;;;;;;;4.30;1.50;;;;;;;9.91;76.61;98339.34;5006497;28;20033;-71
2022/09/20 03:08:11;;;;;;;5.38;1.90;;;;;;;9.94;76.60;98339.56;5022555;28;20442;-71
2022/09/20 03:10:58;;;;;;;2.35;1.80;;;;;;;9.96;77.44;98348.31;5009147;28;20030;-70
2022/09/20 03:13:38;;;;;;;2.72;1.77;;;;;;;9.99;76.53;98346.88;5019412;28;20064;-70
2022/09/20 03:16:11;;;;;;;3.45;2.10;;;;;;;10.01;77.42;98346.59;5029752;28;20424;-70
2022/09/20 03:19:04;;;;;;;4.15;2.20;;;;;;;10.02;76.98;98349.03;5030055;28;20040;-70
2022/09/20 03:22:02;;;;;;;3.03;2.40;;;;;;;10.04;76.94;98352.28;5029229;28;20038;-70
2022/09/20 03:24:46;;;;;;;4.25;2.83;;;;;;;10.00;77.35;98359.47;4986014;28;20553;-70
2022/09/20 03:27:38;;;;;;;2.63;2.30;;;;;;;9.91;77.14;98364.81;5029920;28;20100;-69
2022/09/20 03:30:22;;;;;;;4.20;2.30;;;;;;;9.91;76.88;98364.81;5028809;28;20500;-70
2022/09/20 03:33:46;;;;;;;3.20;2.25;;;;;;;9.93;77.02;98364.53;5029480;28;20116;-70
2022/09/20 03:36:11;;;;;;;2.55;1.98;;;;;;;9.97;77.55;98363.63;4968611;28;20027;-70
2022/09/20 03:38:54;;;;;;;4.88;2.13;;;;;;;10.00;77.00;98364.94;5023065;28;21854;-70
2022/09/20 03:41:38;;;;;;;2.28;2.03;;;;;;;10.00;76.78;98354.00;5009579;28;20026;-70
2022/09/20 03:44:16;;;;;;;3.35;2.13;;;;;;;10.00;77.20;98355.94;5009747;28;20398;-70
2022/09/20 03:46:46;;;;;;;4.00;2.47;;;;;;;9.96;76.77;98356.53;5009879;28;20030;-71
2022/09/20 03:49:26;;;;;;;6.50;3.60;;;;;;;9.89;77.40;98356.06;5010930;28;20481;-70
2022/09/20 03:51:57;;;;;;;3.75;3.17;;;;;;;9.86;77.82;98358.59;5012419;28;20030;-70
2022/09/20 03:54:52;;;;;;;5.15;3.35;;;;;;;9.83;77.43;98354.50;5013354;28;20030;-71
2022/09/20 03:57:24;;;;;;;3.95;3.13;;;;;;;9.79;77.23;98367.16;5012260;28;20682;-70
2022/09/20 04:00:00;;;;;;;4.05;3.45;;;;;;;9.77;77.38;98359.22;5012020;28;20402;-70
2022/09/20 04:02:34;;;;;;;4.50;3.03;;;;;;;9.77;77.44;98356.50;5012362;28;20093;-70
2022/09/20 04:05:05;;;;;;;3.33;2.97;;;;;;;9.79;77.43;98357.03;5012902;28;20026;-70
2022/09/20 04:07:51;;;;;;;5.35;3.47;;;;;;;9.76;76.92;98360.34;5013519;28;20034;-70
2022/09/20 04:10:31;;;;;;;5.38;3.13;;;;;;;9.72;76.92;98356.56;5011452;28;20042;-70
2022/09/20 04:13:36;;;;;;;3.83;2.90;;;;;;;9.71;77.92;98367.81;5009157;28;20542;-71
2022/09/20 04:16:05;;;;;;;4.38;2.90;;;;;;;9.73;77.67;98362.88;5010254;28;20072;-69
2022/09/20 04:18:42;;;;;;;3.40;2.50;;;;;;;9.68;77.77;98361.81;5030735;28;20072;-70
2022/09/20 04:21:23;;;;;;;3.75;2.30;;;;;;;9.66;77.41;98363.19;5032485;28;20109;-70
2022/09/20 04:23:52;;;;;;;2.63;2.08;;;;;;;9.65;77.02;98364.31;5031151;28;20029;-70
2022/09/20 04:26:27;;;;;;;2.95;2.05;;;;;;;9.64;77.82;98371.72;5032437;28;20037;-70
2022/09/20 04:29:00;;;;;;;2.55;1.90;;;;;;;9.66;77.40;98377.72;5015602;28;20545;-70
2022/09/20 04:31:45;;;;;;;3.35;1.85;;;;;;;9.64;77.22;98379.09;5012387;28;20050;-70
2022/09/20 04:34:20;;;;;;;2.78;1.75;;;;;;;9.67;77.18;98375.78;5022238;28;20072;-70
2022/09/20 04:37:02;;;;;;;5.68;2.92;;;;;;;9.65;77.74;98383.47;5017174;28;20034;-70
2022/09/20 04:39:28;;;;;;;3.80;2.33;;;;;;;9.62;77.47;98378.56;5012518;28;20382;-70
2022/09/20 04:41:59;;;;;;;3.47;2.40;;;;;;;9.62;77.70;98381.31;5011607;28;20041;-69
2022/09/20 04:44:32;;;;;;;4.63;2.90;;;;;;;9.63;77.65;98381.03;5012037;28;20389;-70
2022/09/20 04:47:19;;;;;;;4.47;2.95;;;;;;;9.67;77.22;98386.75;5028454;28;20124;-69
2022/09/20 04:49:53;;;;;;;3.03;2.70;;;;;;;9.71;77.31;98384.25;5032385;28;20037;-70
2022/09/20 04:52:58;;;;;;;3.28;2.83;;;;;;;9.77;77.85;98383.09;5029011;28;20026;-71
2022/09/20 04:55:52;;;;;;;4.60;2.97;;;;;;;9.80;77.43;98390.69;5011947;28;20026;-71
2022/09/20 04:58:47;;;;;;;4.85;4.03;;;;;;;9.77;77.52;98396.78;5011191;28;20034;-71
2022/09/20 05:01:16;;;;;;;4.88;3.60;;;;;;;9.76;77.78;98390.47;5010439;28;20030;-71
2022/09/20 05:04:09;;;;;;;4.97;3.90;;;;;;;9.79;77.69;98394.53;5011987;28;20026;-71
2022/09/20 05:06:42;;;;;;;6.88;4.70;;;;;;;9.79;77.41;98395.38;5012037;28;20554;-71
2022/09/20 05:09:28;;;;;;;5.38;4.25;;;;;;;9.76;77.59;98398.69;5015131;28;20046;-71
2022/09/20 05:12:22;;;;;;;5.03;4.43;;;;;;;9.80;78.12;98407.94;5030992;28;20470;-71
2022/09/20 05:15:25;;;;;;;4.82;4.18;;;;;;;9.83;77.59;98406.53;5031048;28;20039;-71
2022/09/20 05:18:14;;;;;;;7.28;4.80;;;;;;;9.86;77.99;98405.97;5028505;28;20033;-71
2022/09/20 05:21:02;;;;;;;5.22;4.65;;;;;;;9.90;77.46;98411.69;5025548;28;20575;-72
2022/09/20 05:24:03;;;;;;;6.38;4.45;;;;;;;9.90;77.20;98412.47;5011900;28;20029;-70
2022/09/20 05:26:46;;;;;;;5.80;4.45;;;;;;;9.92;77.46;98412.22;5002836;28;20049;-71
2022/09/20 05:29:27;;;;;;;5.95;4.28;;;;;;;9.96;77.11;98422.28;5011651;28;20401;-71
2022/09/20 05:32:22;;;;;;;5.75;4.43;;;;;;;10.01;77.67;98418.63;5011211;28;20034;-71
2022/09/20 05:35:03;;;;;;;5.50;4.13;;;;;;;10.04;77.70;98422.75;5010832;28;20033;-71
2022/09/20 05:37:46;;;;;;;5.47;4.22;;;;;;;10.09;77.51;98426.22;5011500;28;20535;-71
2022/09/20 05:40:30;;;;;;;6.18;3.83;;;;;;;10.13;77.84;98424.53;5011278;28;20033;-71
2022/09/20 05:43:34;;;;;;;5.28;4.35;;;;;;;10.16;78.16;98428.63;5011270;28;20030;-71
2022/09/20 05:46:28;;;;;;;6.82;4.47;;;;;;;10.13;77.28;98424.53;4999788;28;20184;-71
2022/09/20 05:49:18;;;;;;;6.00;4.90;;;;;;;10.14;77.37;98422.63;4995149;28;20045;-71
2022/09/20 05:52:08;;;;;;;5.88;4.28;;;;;;;10.12;77.50;98431.09;5010572;28;20053;-71
2022/09/20 05:54:48;;;;;;;6.88;4.18;;;;;;;10.13;77.25;98432.75;5010730;28;20045;-71
2022/09/20 05:57:19;;;;;;;4.88;4.38;;;;;;;10.15;77.18;98429.72;5010163;28;20034;-71
2022/09/20 06:00:06;;;;;;;5.47;4.35;;;;;;;10.19;77.55;98427.19;5009758;28;20121;-71
2022/09/20 06:02:53;;;;;;;5.20;4.15;;;;;;;10.25;77.23;98426.03;5011059;28;20125;-71
2022/09/20 06:05:41;;;;;;;6.28;4.03;;;;;;;10.28;77.28;98428.19;5010620;28;20038;-71
2022/09/20 06:08:14;;;;;;;12.93;9.30;;;;;;;10.27;77.26;98424.59;5007425;28;20529;-72
2022/09/20 06:11:15;;;;;;;11.23;6.22;;;;;;;10.28;77.98;98428.97;5029027;28;20405;-71
2022/09/20 06:14:14;;;;;;;5.10;4.60;;;;;;;10.31;77.09;98429.50;4987823;28;20038;-71
2022/09/20 06:17:01;;;;;;;4.78;3.70;;;;;;;10.28;76.98;98433.66;5010834;28;20030;-71
2022/09/20 06:19:35;;;;;;;5.72;3.58;;;;;;;10.24;76.97;98438.09;5010632;28;20038;-71
2022/09/20 06:22:11;;;;;;;4.25;3.25;;;;;;;10.22;77.36;98432.09;5010484;28;20034;-71
2022/09/20 06:24:46;;;;;;;4.78;3.22;;;;;;;10.18;77.24;98436.53;5010187;28;20072;-71
2022/09/20 06:27:23;;;;;;;7.35;3.42;;;;;;;10.20;77.06;98445.28;5027889;28;20048;-71
2022/09/20 06:29:56;;;;;;;3.90;3.47;;;;;;;10.16;76.34;98438.75;5030397;28;20029;-71
2022/09/20 06:32:21;;;;;;;3.58;3.25;;;;;;;10.11;76.84;98439.63;5030199;28;20067;-71
2022/09/20 06:34:47;;;;;;;4.80;3.30;;;;;;;10.09;76.95;98444.59;5029935;28;20030;-72
2022/09/20 06:43:18;;;;;;;4.65;3.33;;;;;;;10.05;77.19;98447.09;5015947;28;20045;-71
2022/09/20 06:45:44;;;;;;;5.15;3.70;;;;;;;10.06;76.34;98456.94;5009769;28;20018;-74
2022/09/20 06:48:11;;;;;;;4.90;3.17;;;;;;;10.08;76.80;98465.69;5005546;28;20045;-73
2022/09/20 06:50:37;;;;;;;6.70;3.67;;;;;;;10.11;76.84;98458.81;5007917;28;20034;-73
2022/09/20 06:53:04;;;;;;;7.80;3.20;;;;;;;10.16;77.08;98464.25;5008707;28;20032;-73
2022/09/20 06:55:36;;;;;;;5.15;3.50;;;;;;;10.20;76.47;98473.47;5004671;28;20022;-73
2022/09/20 06:58:02;;;;;;;3.92;2.90;;;;;;;10.25;76.74;98475.38;5011228;28;20120;-73
2022/09/20 07:00:29;;;;;;;4.18;2.88;;;;;;;10.31;77.17;98470.63;5009241;28;20105;-74
2022/09/20 07:02:55;;;;;;;5.28;3.30;;;;;;;10.38;77.50;98460.94;5009423;28;20077;-73
2022/09/20 07:05:21;;;;;;;4.28;3.22;;;;;;;10.44;77.08;98461.72;5006421;28;20084;-73
2022/09/20 07:07:47;;;;;;;4.75;3.65;;;;;;;10.50;77.57;98477.00;5006726;28;20026;-74
2022/09/20 07:10:14;;;;;;;3.70;2.95;;;;;;;10.51;76.56;98472.31;5024469;28;20033;-73
2022/09/20 07:12:40;;;;;;;8.38;4.72;;;;;;;10.54;76.86;98472.53;5024271;28;20026;-73
2022/09/20 07:15:06;;;;;;;5.90;3.00;;;;;;;10.56;77.03;98472.22;5012563;28;20289;-73
2022/09/20 07:17:33;;;;;;;21.92;10.00;;;;;;;10.62;76.57;98476.53;5007858;28;20046;-73
2022/09/20 07:19:59;;;;;;;9.93;4.88;;;;;;;10.69;76.73;98482.47;5008929;28;20041;-73
2022/09/20 07:22:28;;;;;;;5.43;3.70;;;;;;;10.72;76.34;98489.28;5008550;28;20058;-73
2022/09/20 07:24:53;;;;;;;3.75;3.10;;;;;;;10.72;76.07;98489.28;5011105;28;20029;-73
2022/09/20 07:27:20;;;;;;;5.65;4.05;;;;;;;10.74;75.76;98487.06;5012888;28;20053;-74
2022/09/20 07:29:46;;;;;;;6.63;4.32;;;;;;;10.79;76.58;98487.00;5012958;28;20026;-74
2022/09/20 07:32:11;;;;;;;8.85;5.70;;;;;;;10.86;75.87;98497.59;5012917;28;20076;-75
2022/09/20 07:34:36;;;;;;;12.52;4.95;;;;;;;10.93;76.48;98487.06;5012220;28;20026;-73
2022/09/20 07:37:02;;;;;;;14.80;6.03;;;;;;;10.94;76.21;98493.38;5012368;28;20741;-73
2022/09/20 07:39:28;;;;;;;5.13;3.33;;;;;;;10.99;76.17;98496.03;5012703;28;20022;-73
2022/09/20 07:41:54;;;;;;;34.50;11.10;;;;;;;10.99;76.06;98488.59;5011100;28;20058;-73
2022/09/20 07:44:20;;;;;;;33.90;12.25;;;;;;;10.98;76.34;98497.97;5012316;28;20096;-72
2022/09/20 07:46:50;;;;;;;29.50;11.00;;;;;;;11.02;75.70;98500.91;5016830;28;20017;-73
2022/09/20 07:49:16;;;;;;;9.57;5.35;;;;;;;11.05;75.72;98497.56;5032368;28;20028;-74
2022/09/20 07:51:41;;;;;;;26.55;8.43;;;;;;;11.11;75.67;98493.63;5032119;28;20021;-75
2022/09/20 07:54:07;;;;;;;12.43;4.50;;;;;;;11.21;75.97;98498.13;5031968;28;20022;-73
2022/09/20 07:56:33;;;;;;;7.57;2.95;;;;;;;11.32;76.09;98505.09;5032142;28;20417;-73
2022/09/20 07:58:58;;;;;;;31.40;8.70;;;;;;;11.46;76.11;98509.81;5031000;28;20412;-74
2022/09/20 08:01:23;;;;;;;22.77;7.28;;;;;;;11.54;76.05;98502.81;5031806;28;20033;-74
2022/09/20 08:03:49;;;;;;;20.67;6.55;;;;;;;11.59;75.77;98497.25;5030752;28;20021;-74
2022/09/20 08:06:17;;;;;;;14.73;4.30;;;;;;;11.64;75.81;98510.88;5031787;28;20474;-74
2022/09/20 08:08:43;;;;;;;8.95;3.60;;;;;;;11.66;75.26;98510.56;5024162;28;20521;-74
2022/09/20 08:11:14;;;;;;;11.45;4.07;;;;;;;11.66;75.08;98508.66;5012267;28;20038;-74
2022/09/20 08:13:42;;;;;;;12.45;3.88;;;;;;;11.73;75.66;98519.25;5023732;28;20474;-74
2022/09/20 08:16:10;;;;;;;16.35;5.07;;;;;;;11.76;75.01;98519.47;5031421;28;20098;-73
2022/09/20 08:18:36;;;;;;;15.20;4.63;;;;;;;11.76;75.35;98513.97;5019907;28;20026;-73
2022/09/20 08:21:06;;;;;;;27.85;7.60;;;;;;;11.76;74.90;98524.97;5010418;28;20034;-74
2022/09/20 08:23:35;;;;;;;17.85;5.93;;;;;;;11.78;75.34;98521.91;5012221;28;20026;-74
2022/09/20 08:26:02;;;;;;;15.70;4.65;;;;;;;11.81;75.26;98521.28;5010659;28;20470;-75
2022/09/20 08:28:29;;;;;;;17.13;5.00;;;;;;;11.86;74.99;98526.69;5012080;28;20022;-75
2022/09/20 08:31:08;;;;;;;10.27;3.50;;;;;;;11.88;74.70;98527.22;5011618;28;20025;-75
2022/09/20 08:33:37;;;;;;;7.88;3.38;;;;;;;11.93;75.06;98520.78;5011930;28;20028;-75
2022/09/20 08:36:04;;;;;;;6.57;2.77;;;;;;;11.99;74.80;98525.13;5011767;28;20152;-76
2022/09/20 08:38:31;;;;;;;6.28;2.92;;;;;;;12.02;74.57;98524.50;5009430;28;20032;-74
2022/09/20 08:41:02;;;;;;;6.35;2.40;;;;;;;12.04;74.37;98524.19;5011414;28;20026;-74
2022/09/20 08:43:34;;;;;;;4.30;2.10;;;;;;;12.07;74.19;98529.09;5011698;28;20064;-73
2022/09/20 08:46:03;;;;;;;5.78;2.83;;;;;;;12.08;73.65;98529.91;5011122;28;20022;-75
2022/09/20 08:48:32;;;;;;;3.80;2.20;;;;;;;12.05;73.93;98525.81;5011562;28;20553;-72
2022/09/20 08:51:02;;;;;;;5.60;3.08;;;;;;;12.04;74.04;98529.69;5011628;28;20050;-73
2022/09/20 08:53:28;;;;;;;;;;;;;;;12.05;74.04;98536.81;5012020;28;20033;-73
2022/09/20 08:55:56;;;;;;;4.00;2.83;;;;;;;12.05;73.79;98534.91;5011407;28;19988;-73
2022/09/20 08:58:22;;;;;;;3.83;2.78;;;;;;;12.03;73.68;98536.31;5011216;28;20029;-74
2022/09/20 09:00:48;;;;;;;2.83;2.50;;;;;;;12.03;73.22;98536.31;5010886;28;20083;-74
2022/09/20 09:03:16;;;;;;;2.13;1.70;;;;;;;12.00;72.66;98536.94;5026677;28;20077;-74
2022/09/20 09:06:00;;;;;;;3.63;1.75;;;;;;;11.96;72.54;98528.44;5031141;28;20075;-75
2022/09/20 09:08:45;;;;;;;1.90;1.80;;;;;;;11.99;73.22;98529.78;5025204;28;20054;-72
2022/09/20 09:11:16;;;;;;;3.42;2.35;;;;;;;12.08;72.93;98527.16;5011022;28;20034;-73
2022/09/20 09:13:52;;;;;;;3.10;1.85;;;;;;;12.16;72.55;98532.75;5011353;28;20544;-75
2022/09/20 09:16:21;;;;;;;3.03;1.90;;;;;;;12.27;72.76;98529.81;5009592;28;20030;-74
2022/09/20 09:18:50;;;;;;;1.92;1.60;;;;;;;12.33;71.55;98528.59;5021963;28;20128;-73
2022/09/20 09:21:26;;;;;;;2.58;1.80;;;;;;;12.38;72.53;98524.91;5030883;28;20037;-73
2022/09/20 09:24:00;;;;;;;2.00;1.80;;;;;;;12.48;71.88;98522.75;5014470;28;20033;-73
2022/09/20 09:26:26;;;;;;;1.90;1.75;;;;;;;12.55;71.81;98535.28;5011052;28;20500;-74
2022/09/20 09:29:18;;;;;;;3.47;2.20;;;;;;;12.50;71.25;98526.03;5010538;28;20037;-73
2022/09/20 09:31:48;;;;;;;2.78;2.13;;;;;;;12.44;70.72;98531.94;5010832;28;20025;-73
2022/09/20 09:34:32;;;;;;;1.60;1.50;;;;;;;12.38;71.27;98534.00;5010509;28;20563;-73
2022/09/20 09:36:58;;;;;;;2.30;1.80;;;;;;;12.37;71.21;98532.38;5008122;28;20022;-74
2022/09/20 09:39:34;;;;;;;5.80;3.20;;;;;;;12.35;71.50;98531.84;5010781;28;20026;-73
2022/09/20 09:41:59;;;;;;;3.22;1.60;;;;;;;12.34;71.00;98532.97;5010610;28;20031;-73
2022/09/20 09:44:31;;;;;;;4.50;2.70;;;;;;;12.35;71.65;98529.09;5010575;28;20036;-74
2022/09/20 09:46:57;;;;;;;3.08;1.45;;;;;;;12.40;71.10;98530.94;5009716;28;20541;-74
2022/09/20 09:49:35;;;;;;;2.42;1.33;;;;;;;12.39;71.11;98529.28;5010607;28;20065;-74
2022/09/20 09:52:03;;;;;;;2.67;1.52;;;;;;;12.40;71.04;98534.50;5022194;28;20048;-73
2022/09/20 09:54:32;;;;;;;3.88;1.52;;;;;;;12.38;71.10;98534.00;5030231;28;20057;-74
2022/09/20 09:57:10;;;;;;;2.28;1.40;;;;;;;12.38;70.82;98527.66;5030444;28;20114;-74
2022/09/20 09:59:51;;;;;;;3.45;2.15;;;;;;;12.43;71.03;98524.81;5029853;28;20507;-74
2022/09/20 10:02:53;;;;;;;4.95;1.80;;;;;;;12.50;70.94;98523.28;5029136;28;20474;-74
2022/09/20 10:05:34;;;;;;;5.55;2.17;;;;;;;12.58;71.21;98531.94;5029679;28;20033;-74
2022/09/20 10:08:14;;;;;;;3.78;2.20;;;;;;;12.64;71.04;98528.75;5027474;28;20017;-73
2022/09/20 10:11:09;;;;;;;2.10;1.60;;;;;;;12.65;70.36;98524.88;5008590;28;20493;-74
2022/09/20 10:13:53;;;;;;;2.50;1.60;;;;;;;12.69;70.62;98521.50;5014072;28;20049;-74
2022/09/20 10:16:50;;;;;;;3.97;1.70;;;;;;;12.73;70.58;98525.28;5019644;28;20179;-75
2022/09/20 10:19:36;;;;;;;1.85;1.50;;;;;;;12.69;70.14;98519.59;5008765;28;20034;-75
2022/09/20 10:22:16;;;;;;;9.98;4.30;;;;;;;12.75;69.71;98518.34;5013471;28;20037;-74
2022/09/20 10:25:26;;;;;;;2.13;1.52;;;;;;;12.86;69.97;98509.84;5009788;28;20021;-74
2022/09/20 10:28:27;;;;;;;3.53;1.90;;;;;;;12.91;69.79;98516.06;5009941;28;20506;-73
2022/09/20 10:31:00;;;;;;;4.85;2.70;;;;;;;12.94;69.80;98528.38;5008379;28;20044;-74
2022/09/20 10:33:36;;;;;;;4.50;2.60;;;;;;;12.95;69.03;98533.59;5010088;28;20780;-74
2022/09/20 10:36:17;;;;;;;6.55;2.85;;;;;;;12.90;69.20;98527.38;5009662;28;20036;-74
2022/09/20 10:38:47;;;;;;;5.18;2.22;;;;;;;12.83;69.00;98530.56;5008788;28;20036;-74
2022/09/20 10:45:15;;;;;;;4.70;2.75;;;;;;;12.83;69.42;98527.00;5009782;28;20060;-75
2022/09/20 10:48:00;;;;;;;3.05;2.50;;;;;;;12.90;69.42;98521.88;5013763;28;20041;-73
2022/09/20 10:50:42;;;;;;;4.25;2.75;;;;;;;13.01;69.69;98517.75;5029399;28;20040;-74
2022/09/20 10:53:40;;;;;;;5.15;2.55;;;;;;;13.14;69.54;98520.78;5017476;28;20026;-74
2022/09/20 10:56:29;;;;;;;5.90;4.13;;;;;;;13.20;69.46;98525.84;5009496;28;20045;-74
2022/09/20 10:59:13;;;;;;;4.22;2.80;;;;;;;13.21;68.76;98538.50;5011871;28;20061;-73
2022/09/20 11:01:55;;;;;;;9.32;4.47;;;;;;;13.13;68.66;98538.44;5012519;28;20367;-73
2022/09/20 11:04:38;;;;;;;3.28;2.60;;;;;;;13.04;68.52;98533.66;5024755;28;20910;-72
2022/09/20 11:07:36;;;;;;;3.20;2.15;;;;;;;12.96;67.86;98534.38;5012465;28;20425;-73
2022/09/20 11:10:14;;;;;;;5.55;2.30;;;;;;;12.90;68.00;98527.38;5008424;28;20099;-73
2022/09/20 11:12:49;;;;;;;3.42;2.45;;;;;;;12.95;68.16;98538.28;5027117;28;20478;-73
2022/09/20 11:15:37;;;;;;;4.00;2.40;;;;;;;13.02;68.59;98535.91;5013253;28;20387;-73
2022/09/20 11:18:22;;;;;;;5.47;3.33;;;;;;;13.03;68.03;98534.78;5013256;28;20022;-73
2022/09/20 11:21:16;;;;;;;4.50;2.47;;;;;;;12.95;66.94;98530.84;5013012;28;20026;-72
2022/09/20 11:23:49;;;;;;;2.00;1.80;;;;;;;12.88;66.83;98533.19;5003448;28;20164;-73
2022/09/20 11:26:34;;;;;;;2.58;2.10;;;;;;;12.85;66.98;98527.47;5012182;28;20022;-74
2022/09/20 11:29:14;;;;;;;4.97;2.63;;;;;;;12.85;66.87;98527.47;5012489;28;20029;-74
2022/09/20 11:31:44;;;;;;;2.67;1.80;;;;;;;12.93;66.61;98527.59;5007734;28;20113;-73
2022/09/20 11:34:22;;;;;;;2.95;2.00;;;;;;;13.07;66.16;98523.94;5009659;28;20033;-75
2022/09/20 11:37:02;;;;;;;2.55;1.80;;;;;;;13.12;66.28;98528.53;5010738;28;20545;-73
2022/09/20 11:39:45;;;;;;;2.25;1.45;;;;;;;13.11;65.75;98530.47;5011201;28;20029;-73
2022/09/20 11:42:18;;;;;;;2.08;1.70;;;;;;;13.12;65.58;98537.59;5013685;28;20105;-74
2022/09/20 11:44:44;;;;;;;2.20;1.60;;;;;;;13.04;65.36;98544.66;5008381;28;20820;-73
2022/09/20 11:47:34;;;;;;;1.70;1.48;;;;;;;13.02;65.79;98546.13;5008820;28;20036;-74
2022/09/20 11:50:55;;;;;;;2.65;1.50;;;;;;;13.06;65.69;98536.09;4991646;28;20396;-75
2022/09/20 11:53:38;;;;;;;2.53;1.50;;;;;;;13.14;65.64;98531.81;4968027;28;20129;-77
2022/09/20 11:56:17;;;;;;;2.95;1.60;;;;;;;13.23;65.38;98538.19;5010355;28;20046;-75
2022/09/20 11:58:48;;;;;;;2.42;1.33;;;;;;;13.34;65.20;98528.53;5007272;28;20483;-74
2022/09/20 12:01:31;;;;;;;2.60;1.60;;;;;;;13.46;65.26;98527.19;5010023;28;20104;-74
2022/09/20 12:04:33;;;;;;;1.52;1.40;;;;;;;13.53;64.85;98522.88;5010647;28;20036;-73
2022/09/20 12:07:13;;;;;;;1.63;1.50;;;;;;;13.55;64.32;98522.56;5006999;28;20117;-72
2022/09/20 12:09:41;;;;;;;;;;;;;;;13.54;64.04;98524.50;4996293;28;20053;-71
2022/09/20 12:12:36;;;;;;;2.42;1.30;;;;;;;13.51;63.59;98525.13;5006312;28;19921;-73
2022/09/20 12:15:06;;;;;;;1.40;1.10;;;;;;;13.57;63.40;98525.00;5008181;28;20037;-71
2022/09/20 12:17:46;;;;;;;;;;;;;;;13.60;62.78;98535.38;5002838;28;20050;-70
2022/09/20 12:20:33;;;;;;;1.55;1.00;;;;;;;13.68;61.65;98527.16;5007230;28;20760;-72
2022/09/20 12:23:53;;;;;;;1.20;0.93;;;;;;;13.75;62.04;98520.41;5012569;28;20053;-72
2022/09/20 12:26:24;;;;;;;1.13;1.02;;;;;;;13.90;61.97;98520.00;4948072;28;20531;-71
2022/09/20 12:28:50;;;;;;;1.67;1.30;;;;;;;13.96;61.65;98517.91;5003033;28;20038;-72
2022/09/20 12:31:25;;;;;;;1.35;1.25;;;;;;;13.99;61.00;98520.03;5017680;28;20513;-73
2022/09/20 12:33:56;;;;;;;1.08;0.98;;;;;;;14.12;60.43;98510.84;5011496;28;20018;-73
2022/09/20 12:36:23;;;;;;;2.42;1.30;;;;;;;14.27;61.34;98520.63;5019698;28;20117;-73